sensor_id;sensor_type;location;lat;lon;timestamp;temperature;humidity
42833;DHT22;64089;51.478;5.692;2024-01-15T00:00:38;1.60;99.90
42833;DHT22;64089;51.478;5.692;2024-01-15T00:03:04;1.60;99.90
42833;DHT22;64089;51.478;5.692;2024-01-15T00:05:30;1.60;99.90
42833;DHT22;64089;51.478;5.692;2024-01-15T00:07:55;1.60;99.90
42833;DHT22;64089;51.478;5.692;2024-01-15T00:10:21;1.60;99.90
42833;DHT22;64089;51.478;5.692;2024-01-15T00:12:46;1.60;99.90
42833;DHT22;64089;51.478;5.692;2024-01-15T00:15:12;1.60;99.90
42833;DHT22;64089;51.478;5.692;2024-01-15T00:17:38;1.60;99.90
42833;DHT22;64089;51.478;5.692;2024-01-15T00:20:04;1.60;99.90
42833;DHT22;64089;51.478;5.692;2024-01-15T00:22:30;1.60;99.90
42833;DHT22;64089;51.478;5.692;2024-01-15T00:24:56;1.60;99.90
42833;DHT22;64089;51.478;5.692;2024-01-15T00:27:22;1.60;99.90
42833;DHT22;64089;51.478;5.692;2024-01-15T00:29:47;1.60;99.90
42833;DHT22;64089;51.478;5.692;2024-01-15T00:32:13;1.50;99.90
42833;DHT22;64089;51.478;5.692;2024-01-15T00:34:39;1.60;99.90
42833;DHT22;64089;51.478;5.692;2024-01-15T00:37:04;1.60;99.90
42833;DHT22;64089;51.478;5.692;2024-01-15T00:39:32;1.50;99.90
42833;DHT22;64089;51.478;5.692;2024-01-15T00:41:58;1.50;99.90
42833;DHT22;64089;51.478;5.692;2024-01-15T00:44:23;1.60;99.90
42833;DHT22;64089;51.478;5.692;2024-01-15T00:46:49;1.50;99.90
42833;DHT22;64089;51.478;5.692;2024-01-15T00:49:15;1.60;99.90
42833;DHT22;64089;51.478;5.692;2024-01-15T00:51:41;1.60;99.90
42833;DHT22;64089;51.478;5.692;2024-01-15T00:54:07;1.60;99.90
42833;DHT22;64089;51.478;5.692;2024-01-15T00:56:32;1.60;99.90
42833;DHT22;64089;51.478;5.692;2024-01-15T00:58:58;1.60;99.90
42833;DHT22;64089;51.478;5.692;2024-01-15T01:01:23;1.60;99.90
42833;DHT22;64089;51.478;5.692;2024-01-15T01:03:49;1.60;99.90
42833;DHT22;64089;51.478;5.692;2024-01-15T01:06:15;1.60;99.90
42833;DHT22;64089;51.478;5.692;2024-01-15T01:08:40;1.60;99.90
42833;DHT22;64089;51.478;5.692;2024-01-15T01:11:06;1.60;99.90
42833;DHT22;64089;51.478;5.692;2024-01-15T01:13:32;1.50;99.90
42833;DHT22;64089;51.478;5.692;2024-01-15T01:15:58;1.50;99.90
42833;DHT22;64089;51.478;5.692;2024-01-15T01:18:24;1.50;99.90
42833;DHT22;64089;51.478;5.692;2024-01-15T01:20:49;1.50;99.90
42833;DHT22;64089;51.478;5.692;2024-01-15T01:23:15;1.50;99.90
42833;DHT22;64089;51.478;5.692;2024-01-15T01:25:40;1.50;99.90
42833;DHT22;64089;51.478;5.692;2024-01-15T01:28:06;1.50;99.90
42833;DHT22;64089;51.478;5.692;2024-01-15T01:30:32;1.50;99.90
42833;DHT22;64089;51.478;5.692;2024-01-15T01:32:57;1.60;99.90
42833;DHT22;64089;51.478;5.692;2024-01-15T01:35:23;1.60;99.90
42833;DHT22;64089;51.478;5.692;2024-01-15T01:37:48;1.60;99.90
42833;DHT22;64089;51.478;5.692;2024-01-15T01:40:14;1.60;99.90
42833;DHT22;64089;51.478;5.692;2024-01-15T01:42:40;1.60;99.90
42833;DHT22;64089;51.478;5.692;2024-01-15T01:45:05;1.60;99.90
42833;DHT22;64089;51.478;5.692;2024-01-15T01:47:32;1.70;99.90
42833;DHT22;64089;51.478;5.692;2024-01-15T01:49:57;1.60;99.90
42833;DHT22;64089;51.478;5.692;2024-01-15T01:52:23;1.60;99.90
42833;DHT22;64089;51.478;5.692;2024-01-15T01:54:49;1.60;99.90
42833;DHT22;64089;51.478;5.692;2024-01-15T01:57:16;1.70;99.90
42833;DHT22;64089;51.478;5.692;2024-01-15T01:59:43;1.60;99.90
42833;DHT22;64089;51.478;5.692;2024-01-15T02:02:09;1.60;99.90
42833;DHT22;64089;51.478;5.692;2024-01-15T02:04:36;1.50;99.90
42833;DHT22;64089;51.478;5.692;2024-01-15T02:07:02;1.50;99.90
42833;DHT22;64089;51.478;5.692;2024-01-15T02:09:28;1.50;99.90
42833;DHT22;64089;51.478;5.692;2024-01-15T02:11:53;1.50;99.90
42833;DHT22;64089;51.478;5.692;2024-01-15T02:14:19;1.40;99.90
42833;DHT22;64089;51.478;5.692;2024-01-15T02:16:45;1.60;99.90
42833;DHT22;64089;51.478;5.692;2024-01-15T02:19:17;1.60;99.90
42833;DHT22;64089;51.478;5.692;2024-01-15T02:21:43;1.50;99.90
42833;DHT22;64089;51.478;5.692;2024-01-15T02:24:09;1.60;99.90
42833;DHT22;64089;51.478;5.692;2024-01-15T02:26:35;1.50;99.90
42833;DHT22;64089;51.478;5.692;2024-01-15T02:29:02;1.60;99.90
42833;DHT22;64089;51.478;5.692;2024-01-15T02:31:28;1.50;99.90
42833;DHT22;64089;51.478;5.692;2024-01-15T02:33:54;1.50;99.90
42833;DHT22;64089;51.478;5.692;2024-01-15T02:36:19;1.50;99.90
42833;DHT22;64089;51.478;5.692;2024-01-15T02:38:45;1.50;99.90
42833;DHT22;64089;51.478;5.692;2024-01-15T02:41:11;1.50;99.90
42833;DHT22;64089;51.478;5.692;2024-01-15T02:43:39;1.50;99.90
42833;DHT22;64089;51.478;5.692;2024-01-15T02:46:05;1.50;99.90
42833;DHT22;64089;51.478;5.692;2024-01-15T02:48:30;1.50;99.90
42833;DHT22;64089;51.478;5.692;2024-01-15T02:50:56;1.50;99.90
42833;DHT22;64089;51.478;5.692;2024-01-15T02:53:22;1.50;99.90
42833;DHT22;64089;51.478;5.692;2024-01-15T02:55:47;1.40;99.90
42833;DHT22;64089;51.478;5.692;2024-01-15T02:58:14;1.40;99.90
42833;DHT22;64089;51.478;5.692;2024-01-15T03:00:40;1.40;99.90
42833;DHT22;64089;51.478;5.692;2024-01-15T03:03:05;1.40;99.90
42833;DHT22;64089;51.478;5.692;2024-01-15T03:05:31;1.40;99.90
42833;DHT22;64089;51.478;5.692;2024-01-15T03:07:57;1.40;99.90
42833;DHT22;64089;51.478;5.692;2024-01-15T03:10:22;1.30;99.90
42833;DHT22;64089;51.478;5.692;2024-01-15T03:12:48;1.30;99.90
42833;DHT22;64089;51.478;5.692;2024-01-15T03:15:13;1.20;99.90
42833;DHT22;64089;51.478;5.692;2024-01-15T03:17:40;1.40;99.90
42833;DHT22;64089;51.478;5.692;2024-01-15T03:20:06;1.30;99.90
42833;DHT22;64089;51.478;5.692;2024-01-15T03:22:32;1.30;99.90
42833;DHT22;64089;51.478;5.692;2024-01-15T03:24:58;1.30;99.90
42833;DHT22;64089;51.478;5.692;2024-01-15T03:27:24;1.30;99.90
42833;DHT22;64089;51.478;5.692;2024-01-15T03:29:49;1.30;99.90
42833;DHT22;64089;51.478;5.692;2024-01-15T03:32:15;1.40;99.90
42833;DHT22;64089;51.478;5.692;2024-01-15T03:34:41;1.40;99.90
42833;DHT22;64089;51.478;5.692;2024-01-15T03:37:07;1.40;99.90
42833;DHT22;64089;51.478;5.692;2024-01-15T03:39:32;1.30;99.90
42833;DHT22;64089;51.478;5.692;2024-01-15T03:41:58;1.30;99.90
42833;DHT22;64089;51.478;5.692;2024-01-15T03:44:24;1.30;99.90
42833;DHT22;64089;51.478;5.692;2024-01-15T03:46:50;1.20;99.90
42833;DHT22;64089;51.478;5.692;2024-01-15T03:49:15;1.30;99.90
42833;DHT22;64089;51.478;5.692;2024-01-15T03:51:41;1.30;99.90
42833;DHT22;64089;51.478;5.692;2024-01-15T03:54:06;1.30;99.90
42833;DHT22;64089;51.478;5.692;2024-01-15T03:56:32;1.30;99.90
42833;DHT22;64089;51.478;5.692;2024-01-15T03:58:57;1.30;99.90
42833;DHT22;64089;51.478;5.692;2024-01-15T04:01:23;1.30;99.90
42833;DHT22;64089;51.478;5.692;2024-01-15T04:03:48;1.30;99.90
42833;DHT22;64089;51.478;5.692;2024-01-15T04:06:14;1.40;99.90
42833;DHT22;64089;51.478;5.692;2024-01-15T04:08:40;1.40;99.90
42833;DHT22;64089;51.478;5.692;2024-01-15T04:11:05;1.50;99.90
42833;DHT22;64089;51.478;5.692;2024-01-15T04:13:34;1.50;99.90
42833;DHT22;64089;51.478;5.692;2024-01-15T04:16:00;1.60;99.90
42833;DHT22;64089;51.478;5.692;2024-01-15T04:18:26;1.60;99.90
42833;DHT22;64089;51.478;5.692;2024-01-15T04:20:52;1.60;99.90
42833;DHT22;64089;51.478;5.692;2024-01-15T04:23:17;1.60;99.90
42833;DHT22;64089;51.478;5.692;2024-01-15T04:25:43;1.70;99.90
42833;DHT22;64089;51.478;5.692;2024-01-15T04:28:12;1.70;99.90
42833;DHT22;64089;51.478;5.692;2024-01-15T04:30:37;1.70;99.90
42833;DHT22;64089;51.478;5.692;2024-01-15T04:33:03;1.70;99.90
42833;DHT22;64089;51.478;5.692;2024-01-15T04:35:29;1.80;99.90
42833;DHT22;64089;51.478;5.692;2024-01-15T04:37:55;1.80;99.90
42833;DHT22;64089;51.478;5.692;2024-01-15T04:40:20;1.80;99.90
42833;DHT22;64089;51.478;5.692;2024-01-15T04:42:46;1.80;99.90
42833;DHT22;64089;51.478;5.692;2024-01-15T04:45:12;1.80;99.90
42833;DHT22;64089;51.478;5.692;2024-01-15T04:47:37;1.90;99.90
42833;DHT22;64089;51.478;5.692;2024-01-15T04:50:04;1.90;99.90
42833;DHT22;64089;51.478;5.692;2024-01-15T04:52:30;1.90;99.90
42833;DHT22;64089;51.478;5.692;2024-01-15T04:54:55;1.90;99.90
42833;DHT22;64089;51.478;5.692;2024-01-15T04:57:21;1.90;99.90
42833;DHT22;64089;51.478;5.692;2024-01-15T04:59:46;1.90;99.90
42833;DHT22;64089;51.478;5.692;2024-01-15T05:02:12;1.80;99.90
42833;DHT22;64089;51.478;5.692;2024-01-15T05:04:38;1.90;99.90
42833;DHT22;64089;51.478;5.692;2024-01-15T05:07:03;1.90;99.90
42833;DHT22;64089;51.478;5.692;2024-01-15T05:09:29;1.90;99.90
42833;DHT22;64089;51.478;5.692;2024-01-15T05:11:54;1.90;99.90
42833;DHT22;64089;51.478;5.692;2024-01-15T05:14:20;1.90;99.90
42833;DHT22;64089;51.478;5.692;2024-01-15T05:16:49;1.90;99.90
42833;DHT22;64089;51.478;5.692;2024-01-15T05:19:15;1.80;99.90
42833;DHT22;64089;51.478;5.692;2024-01-15T05:21:41;1.80;99.90
42833;DHT22;64089;51.478;5.692;2024-01-15T05:24:08;1.70;99.90
42833;DHT22;64089;51.478;5.692;2024-01-15T05:26:33;1.70;99.90
42833;DHT22;64089;51.478;5.692;2024-01-15T05:28:59;1.70;99.90
42833;DHT22;64089;51.478;5.692;2024-01-15T05:31:25;1.70;99.90
42833;DHT22;64089;51.478;5.692;2024-01-15T05:33:50;1.70;99.90
42833;DHT22;64089;51.478;5.692;2024-01-15T05:36:16;1.70;99.90
42833;DHT22;64089;51.478;5.692;2024-01-15T05:38:42;1.70;99.90
42833;DHT22;64089;51.478;5.692;2024-01-15T05:41:07;1.70;99.90
42833;DHT22;64089;51.478;5.692;2024-01-15T05:43:33;1.70;99.90
42833;DHT22;64089;51.478;5.692;2024-01-15T05:45:58;1.70;99.90
42833;DHT22;64089;51.478;5.692;2024-01-15T05:48:24;1.60;99.90
42833;DHT22;64089;51.478;5.692;2024-01-15T05:50:49;1.60;99.90
42833;DHT22;64089;51.478;5.692;2024-01-15T05:53:15;1.60;99.90
42833;DHT22;64089;51.478;5.692;2024-01-15T05:55:41;1.60;99.90
42833;DHT22;64089;51.478;5.692;2024-01-15T05:58:06;1.60;99.90
42833;DHT22;64089;51.478;5.692;2024-01-15T06:00:32;1.50;99.90
42833;DHT22;64089;51.478;5.692;2024-01-15T06:03:01;1.50;99.90
42833;DHT22;64089;51.478;5.692;2024-01-15T06:05:27;1.50;99.90
42833;DHT22;64089;51.478;5.692;2024-01-15T06:07:52;1.50;99.90
42833;DHT22;64089;51.478;5.692;2024-01-15T06:10:18;1.50;99.90
42833;DHT22;64089;51.478;5.692;2024-01-15T06:12:44;1.60;99.90
42833;DHT22;64089;51.478;5.692;2024-01-15T06:15:09;1.70;99.90
42833;DHT22;64089;51.478;5.692;2024-01-15T06:17:35;1.60;99.90
42833;DHT22;64089;51.478;5.692;2024-01-15T06:20:01;1.60;99.90
42833;DHT22;64089;51.478;5.692;2024-01-15T06:22:27;1.60;99.90
42833;DHT22;64089;51.478;5.692;2024-01-15T06:24:52;1.60;99.90
42833;DHT22;64089;51.478;5.692;2024-01-15T06:27:18;1.60;99.90
42833;DHT22;64089;51.478;5.692;2024-01-15T06:29:45;1.60;99.90
42833;DHT22;64089;51.478;5.692;2024-01-15T06:32:12;1.60;99.90
42833;DHT22;64089;51.478;5.692;2024-01-15T06:34:38;1.60;99.90
42833;DHT22;64089;51.478;5.692;2024-01-15T06:37:03;1.60;99.90
42833;DHT22;64089;51.478;5.692;2024-01-15T06:39:29;1.50;99.90
42833;DHT22;64089;51.478;5.692;2024-01-15T06:41:55;1.50;99.90
42833;DHT22;64089;51.478;5.692;2024-01-15T06:44:20;1.50;99.90
42833;DHT22;64089;51.478;5.692;2024-01-15T06:46:47;1.60;99.90
42833;DHT22;64089;51.478;5.692;2024-01-15T06:49:12;1.60;99.90
42833;DHT22;64089;51.478;5.692;2024-01-15T06:51:38;1.70;99.90
42833;DHT22;64089;51.478;5.692;2024-01-15T06:54:04;1.70;99.90
42833;DHT22;64089;51.478;5.692;2024-01-15T06:56:30;1.70;99.90
42833;DHT22;64089;51.478;5.692;2024-01-15T06:58:56;1.70;99.90
42833;DHT22;64089;51.478;5.692;2024-01-15T07:01:22;1.80;99.90
42833;DHT22;64089;51.478;5.692;2024-01-15T07:03:47;1.80;99.90
42833;DHT22;64089;51.478;5.692;2024-01-15T07:06:13;1.80;99.90
42833;DHT22;64089;51.478;5.692;2024-01-15T07:08:39;1.70;99.90
42833;DHT22;64089;51.478;5.692;2024-01-15T07:11:06;1.70;99.90
42833;DHT22;64089;51.478;5.692;2024-01-15T07:13:32;1.70;99.90
42833;DHT22;64089;51.478;5.692;2024-01-15T07:15:58;1.70;99.90
42833;DHT22;64089;51.478;5.692;2024-01-15T07:18:23;1.70;99.90
42833;DHT22;64089;51.478;5.692;2024-01-15T07:20:50;1.60;99.90
42833;DHT22;64089;51.478;5.692;2024-01-15T07:23:15;1.70;99.90
42833;DHT22;64089;51.478;5.692;2024-01-15T07:25:41;1.60;99.90
42833;DHT22;64089;51.478;5.692;2024-01-15T07:28:07;1.60;99.90
42833;DHT22;64089;51.478;5.692;2024-01-15T07:30:33;1.60;99.90
42833;DHT22;64089;51.478;5.692;2024-01-15T07:32:58;1.60;99.90
42833;DHT22;64089;51.478;5.692;2024-01-15T07:35:24;1.50;99.90
42833;DHT22;64089;51.478;5.692;2024-01-15T07:37:50;1.50;99.90
42833;DHT22;64089;51.478;5.692;2024-01-15T07:40:15;1.50;99.90
42833;DHT22;64089;51.478;5.692;2024-01-15T07:42:41;1.50;99.90
42833;DHT22;64089;51.478;5.692;2024-01-15T07:45:08;1.50;99.90
42833;DHT22;64089;51.478;5.692;2024-01-15T07:47:34;1.40;99.90
42833;DHT22;64089;51.478;5.692;2024-01-15T07:50:00;1.40;99.90
42833;DHT22;64089;51.478;5.692;2024-01-15T07:52:25;1.40;99.90
42833;DHT22;64089;51.478;5.692;2024-01-15T07:54:51;1.40;99.90
42833;DHT22;64089;51.478;5.692;2024-01-15T07:57:17;1.40;99.90
42833;DHT22;64089;51.478;5.692;2024-01-15T07:59:42;1.40;99.90
42833;DHT22;64089;51.478;5.692;2024-01-15T08:02:08;1.40;99.90
42833;DHT22;64089;51.478;5.692;2024-01-15T08:04:34;1.40;99.90
42833;DHT22;64089;51.478;5.692;2024-01-15T08:06:59;1.30;99.90
42833;DHT22;64089;51.478;5.692;2024-01-15T08:09:25;1.40;99.90
42833;DHT22;64089;51.478;5.692;2024-01-15T08:11:50;1.40;99.90
42833;DHT22;64089;51.478;5.692;2024-01-15T08:14:16;1.50;99.90
42833;DHT22;64089;51.478;5.692;2024-01-15T08:16:41;1.50;99.90
42833;DHT22;64089;51.478;5.692;2024-01-15T08:19:09;1.50;99.90
42833;DHT22;64089;51.478;5.692;2024-01-15T08:21:34;1.60;99.90
42833;DHT22;64089;51.478;5.692;2024-01-15T08:24:01;1.60;99.90
42833;DHT22;64089;51.478;5.692;2024-01-15T08:26:28;1.50;99.90
42833;DHT22;64089;51.478;5.692;2024-01-15T08:28:53;1.60;99.90
42833;DHT22;64089;51.478;5.692;2024-01-15T08:31:19;1.60;99.90
42833;DHT22;64089;51.478;5.692;2024-01-15T08:33:44;1.60;99.90
42833;DHT22;64089;51.478;5.692;2024-01-15T08:36:10;1.60;99.90
42833;DHT22;64089;51.478;5.692;2024-01-15T08:38:36;1.60;99.90
42833;DHT22;64089;51.478;5.692;2024-01-15T08:41:01;1.50;99.90
42833;DHT22;64089;51.478;5.692;2024-01-15T08:43:27;1.50;99.90
42833;DHT22;64089;51.478;5.692;2024-01-15T08:45:53;1.40;99.90
42833;DHT22;64089;51.478;5.692;2024-01-15T08:48:19;1.40;99.90
42833;DHT22;64089;51.478;5.692;2024-01-15T08:50:44;1.40;99.90
42833;DHT22;64089;51.478;5.692;2024-01-15T08:53:13;1.40;99.90
42833;DHT22;64089;51.478;5.692;2024-01-15T08:55:39;1.40;99.90
42833;DHT22;64089;51.478;5.692;2024-01-15T08:58:04;1.50;99.90
42833;DHT22;64089;51.478;5.692;2024-01-15T09:00:31;1.40;99.90
42833;DHT22;64089;51.478;5.692;2024-01-15T09:02:57;1.50;99.90
42833;DHT22;64089;51.478;5.692;2024-01-15T09:05:23;1.50;99.90
42833;DHT22;64089;51.478;5.692;2024-01-15T09:07:48;1.60;99.90
42833;DHT22;64089;51.478;5.692;2024-01-15T09:10:16;1.50;99.90
42833;DHT22;64089;51.478;5.692;2024-01-15T09:12:42;1.60;99.90
42833;DHT22;64089;51.478;5.692;2024-01-15T09:15:08;1.60;99.90
42833;DHT22;64089;51.478;5.692;2024-01-15T09:17:33;1.60;99.90
42833;DHT22;64089;51.478;5.692;2024-01-15T09:19:59;1.60;99.90
42833;DHT22;64089;51.478;5.692;2024-01-15T09:22:25;1.60;99.90
42833;DHT22;64089;51.478;5.692;2024-01-15T09:24:51;1.60;99.90
42833;DHT22;64089;51.478;5.692;2024-01-15T09:27:16;1.60;99.90
42833;DHT22;64089;51.478;5.692;2024-01-15T09:29:42;1.70;99.90
42833;DHT22;64089;51.478;5.692;2024-01-15T09:32:09;1.70;99.90
42833;DHT22;64089;51.478;5.692;2024-01-15T09:34:35;1.70;99.90
42833;DHT22;64089;51.478;5.692;2024-01-15T09:37:01;1.70;99.90
42833;DHT22;64089;51.478;5.692;2024-01-15T09:39:27;1.70;99.90
42833;DHT22;64089;51.478;5.692;2024-01-15T09:41:54;1.70;99.90
42833;DHT22;64089;51.478;5.692;2024-01-15T09:44:20;1.80;99.90
42833;DHT22;64089;51.478;5.692;2024-01-15T09:46:48;1.80;99.90
42833;DHT22;64089;51.478;5.692;2024-01-15T09:49:17;1.80;99.90
42833;DHT22;64089;51.478;5.692;2024-01-15T09:51:43;1.80;99.90
42833;DHT22;64089;51.478;5.692;2024-01-15T09:54:09;1.90;99.90
42833;DHT22;64089;51.478;5.692;2024-01-15T09:56:35;1.90;99.90
42833;DHT22;64089;51.478;5.692;2024-01-15T09:59:01;1.90;99.90
42833;DHT22;64089;51.478;5.692;2024-01-15T10:01:28;1.90;99.90
42833;DHT22;64089;51.478;5.692;2024-01-15T10:03:54;1.90;99.90
42833;DHT22;64089;51.478;5.692;2024-01-15T10:06:21;1.90;99.90
42833;DHT22;64089;51.478;5.692;2024-01-15T10:08:51;1.90;99.90
42833;DHT22;64089;51.478;5.692;2024-01-15T10:11:16;1.90;99.90
42833;DHT22;64089;51.478;5.692;2024-01-15T10:13:46;1.90;99.90
42833;DHT22;64089;51.478;5.692;2024-01-15T10:16:12;1.90;99.90
42833;DHT22;64089;51.478;5.692;2024-01-15T10:18:38;1.90;99.90
42833;DHT22;64089;51.478;5.692;2024-01-15T10:21:06;1.90;99.90
42833;DHT22;64089;51.478;5.692;2024-01-15T10:23:32;1.90;99.90
42833;DHT22;64089;51.478;5.692;2024-01-15T10:25:58;2.00;99.90
42833;DHT22;64089;51.478;5.692;2024-01-15T10:28:26;2.00;99.90
42833;DHT22;64089;51.478;5.692;2024-01-15T10:30:57;2.20;99.90
42833;DHT22;64089;51.478;5.692;2024-01-15T10:33:23;2.20;99.90
42833;DHT22;64089;51.478;5.692;2024-01-15T10:35:53;2.20;99.90
42833;DHT22;64089;51.478;5.692;2024-01-15T10:38:20;2.30;99.90
42833;DHT22;64089;51.478;5.692;2024-01-15T10:40:48;2.50;99.90
42833;DHT22;64089;51.478;5.692;2024-01-15T10:43:16;2.50;99.90
42833;DHT22;64089;51.478;5.692;2024-01-15T10:45:47;2.60;99.90
42833;DHT22;64089;51.478;5.692;2024-01-15T10:48:13;2.60;99.90
42833;DHT22;64089;51.478;5.692;2024-01-15T10:50:39;2.60;99.90
42833;DHT22;64089;51.478;5.692;2024-01-15T10:53:05;2.70;99.90
42833;DHT22;64089;51.478;5.692;2024-01-15T10:55:31;2.70;99.90
42833;DHT22;64089;51.478;5.692;2024-01-15T10:57:59;2.70;99.90
42833;DHT22;64089;51.478;5.692;2024-01-15T11:00:25;2.60;99.90
42833;DHT22;64089;51.478;5.692;2024-01-15T11:02:51;2.70;99.90
42833;DHT22;64089;51.478;5.692;2024-01-15T11:05:21;2.70;99.90
42833;DHT22;64089;51.478;5.692;2024-01-15T11:07:48;2.70;99.90
42833;DHT22;64089;51.478;5.692;2024-01-15T11:16:02;2.50;99.90
42833;DHT22;64089;51.478;5.692;2024-01-15T11:18:30;2.60;99.90
42833;DHT22;64089;51.478;5.692;2024-01-15T11:23:57;2.70;99.90
42833;DHT22;64089;51.478;5.692;2024-01-15T11:26:46;2.70;99.90
42833;DHT22;64089;51.478;5.692;2024-01-15T11:31:56;2.80;99.90
42833;DHT22;64089;51.478;5.692;2024-01-15T11:34:50;2.90;99.90
42833;DHT22;64089;51.478;5.692;2024-01-15T11:37:15;2.90;99.90
42833;DHT22;64089;51.478;5.692;2024-01-15T11:39:44;3.10;99.90
42833;DHT22;64089;51.478;5.692;2024-01-15T11:42:11;3.20;99.90
42833;DHT22;64089;51.478;5.692;2024-01-15T11:44:38;3.30;99.90
42833;DHT22;64089;51.478;5.692;2024-01-15T11:47:11;3.20;99.90
42833;DHT22;64089;51.478;5.692;2024-01-15T11:49:59;3.10;99.90
42833;DHT22;64089;51.478;5.692;2024-01-15T11:52:35;2.90;99.90
42833;DHT22;64089;51.478;5.692;2024-01-15T11:55:27;2.70;99.90
42833;DHT22;64089;51.478;5.692;2024-01-15T11:57:57;2.70;99.90
42833;DHT22;64089;51.478;5.692;2024-01-15T12:00:25;2.60;99.90
42833;DHT22;64089;51.478;5.692;2024-01-15T12:02:51;2.50;99.90
42833;DHT22;64089;51.478;5.692;2024-01-15T12:05:18;2.40;99.90
42833;DHT22;64089;51.478;5.692;2024-01-15T12:07:48;2.50;99.90
42833;DHT22;64089;51.478;5.692;2024-01-15T12:10:16;2.60;99.90
42833;DHT22;64089;51.478;5.692;2024-01-15T12:15:20;2.70;99.90
42833;DHT22;64089;51.478;5.692;2024-01-15T12:17:46;2.60;99.90
42833;DHT22;64089;51.478;5.692;2024-01-15T12:20:14;2.60;99.90
42833;DHT22;64089;51.478;5.692;2024-01-15T12:22:41;2.60;99.90
42833;DHT22;64089;51.478;5.692;2024-01-15T12:25:07;2.60;99.90
42833;DHT22;64089;51.478;5.692;2024-01-15T12:27:33;2.70;99.90
42833;DHT22;64089;51.478;5.692;2024-01-15T12:29:59;2.50;99.90
42833;DHT22;64089;51.478;5.692;2024-01-15T12:32:25;2.40;99.90
42833;DHT22;64089;51.478;5.692;2024-01-15T12:34:50;2.20;99.90
42833;DHT22;64089;51.478;5.692;2024-01-15T12:37:19;2.10;99.90
42833;DHT22;64089;51.478;5.692;2024-01-15T12:39:45;2.10;99.90
42833;DHT22;64089;51.478;5.692;2024-01-15T12:42:11;2.10;99.90
42833;DHT22;64089;51.478;5.692;2024-01-15T12:44:37;2.10;99.90
42833;DHT22;64089;51.478;5.692;2024-01-15T12:47:06;2.10;99.90
42833;DHT22;64089;51.478;5.692;2024-01-15T12:49:32;2.10;99.90
42833;DHT22;64089;51.478;5.692;2024-01-15T12:51:58;2.00;99.90
42833;DHT22;64089;51.478;5.692;2024-01-15T12:54:24;2.00;99.90
42833;DHT22;64089;51.478;5.692;2024-01-15T12:56:50;1.80;99.90
42833;DHT22;64089;51.478;5.692;2024-01-15T12:59:16;1.70;99.90
42833;DHT22;64089;51.478;5.692;2024-01-15T13:01:43;1.70;99.90
42833;DHT22;64089;51.478;5.692;2024-01-15T13:04:08;1.70;99.90
42833;DHT22;64089;51.478;5.692;2024-01-15T13:06:34;1.70;99.90
42833;DHT22;64089;51.478;5.692;2024-01-15T13:09:00;1.70;99.90
42833;DHT22;64089;51.478;5.692;2024-01-15T13:11:27;1.60;99.90
42833;DHT22;64089;51.478;5.692;2024-01-15T13:13:52;1.60;99.90
42833;DHT22;64089;51.478;5.692;2024-01-15T13:16:18;1.50;99.90
42833;DHT22;64089;51.478;5.692;2024-01-15T13:18:46;1.50;99.90
42833;DHT22;64089;51.478;5.692;2024-01-15T13:21:11;1.50;99.90
42833;DHT22;64089;51.478;5.692;2024-01-15T13:23:38;1.50;99.90
42833;DHT22;64089;51.478;5.692;2024-01-15T13:26:04;1.50;99.90
42833;DHT22;64089;51.478;5.692;2024-01-15T13:28:30;1.50;99.90
42833;DHT22;64089;51.478;5.692;2024-01-15T13:30:56;1.50;99.90
42833;DHT22;64089;51.478;5.692;2024-01-15T13:33:21;1.60;99.90
42833;DHT22;64089;51.478;5.692;2024-01-15T13:35:47;1.60;99.90
42833;DHT22;64089;51.478;5.692;2024-01-15T13:38:15;1.60;99.90
42833;DHT22;64089;51.478;5.692;2024-01-15T13:40:41;1.60;99.90
42833;DHT22;64089;51.478;5.692;2024-01-15T13:43:07;1.60;99.90
42833;DHT22;64089;51.478;5.692;2024-01-15T13:45:34;1.60;99.90
42833;DHT22;64089;51.478;5.692;2024-01-15T13:48:01;1.70;99.90
42833;DHT22;64089;51.478;5.692;2024-01-15T13:50:26;1.70;99.90
42833;DHT22;64089;51.478;5.692;2024-01-15T13:52:53;1.60;99.90
42833;DHT22;64089;51.478;5.692;2024-01-15T13:55:18;1.70;99.90
42833;DHT22;64089;51.478;5.692;2024-01-15T13:57:44;1.80;99.90
42833;DHT22;64089;51.478;5.692;2024-01-15T14:00:10;1.80;99.90
42833;DHT22;64089;51.478;5.692;2024-01-15T14:02:37;1.80;99.90
42833;DHT22;64089;51.478;5.692;2024-01-15T14:05:03;1.80;99.90
42833;DHT22;64089;51.478;5.692;2024-01-15T14:07:29;1.80;99.90
42833;DHT22;64089;51.478;5.692;2024-01-15T14:09:54;1.90;99.90
42833;DHT22;64089;51.478;5.692;2024-01-15T14:12:20;1.80;99.90
42833;DHT22;64089;51.478;5.692;2024-01-15T14:14:45;1.80;99.90
42833;DHT22;64089;51.478;5.692;2024-01-15T14:17:11;1.80;99.90
42833;DHT22;64089;51.478;5.692;2024-01-15T14:19:37;1.70;99.90
42833;DHT22;64089;51.478;5.692;2024-01-15T14:22:03;1.80;99.90
42833;DHT22;64089;51.478;5.692;2024-01-15T14:24:28;1.90;99.90
42833;DHT22;64089;51.478;5.692;2024-01-15T14:26:54;2.00;99.90
42833;DHT22;64089;51.478;5.692;2024-01-15T14:29:19;2.10;99.90
42833;DHT22;64089;51.478;5.692;2024-01-15T14:31:47;2.30;99.90
42833;DHT22;64089;51.478;5.692;2024-01-15T14:34:13;2.20;99.90
42833;DHT22;64089;51.478;5.692;2024-01-15T14:36:39;2.30;99.90
42833;DHT22;64089;51.478;5.692;2024-01-15T14:39:04;2.30;99.90
42833;DHT22;64089;51.478;5.692;2024-01-15T14:41:30;2.40;99.90
42833;DHT22;64089;51.478;5.692;2024-01-15T14:43:56;2.30;99.90
42833;DHT22;64089;51.478;5.692;2024-01-15T14:46:22;2.30;99.90
42833;DHT22;64089;51.478;5.692;2024-01-15T14:48:48;2.20;99.90
42833;DHT22;64089;51.478;5.692;2024-01-15T14:51:14;2.20;99.90
42833;DHT22;64089;51.478;5.692;2024-01-15T14:53:39;2.10;99.90
42833;DHT22;64089;51.478;5.692;2024-01-15T14:56:05;2.00;99.90
42833;DHT22;64089;51.478;5.692;2024-01-15T14:58:31;2.10;99.90
42833;DHT22;64089;51.478;5.692;2024-01-15T15:00:57;2.00;99.90
42833;DHT22;64089;51.478;5.692;2024-01-15T15:03:23;2.00;99.90
42833;DHT22;64089;51.478;5.692;2024-01-15T15:05:48;2.10;99.90
42833;DHT22;64089;51.478;5.692;2024-01-15T15:08:14;2.20;99.90
42833;DHT22;64089;51.478;5.692;2024-01-15T15:10:40;2.20;99.90
42833;DHT22;64089;51.478;5.692;2024-01-15T15:13:08;2.20;99.90
42833;DHT22;64089;51.478;5.692;2024-01-15T15:15:35;2.20;99.90
42833;DHT22;64089;51.478;5.692;2024-01-15T15:18:01;2.10;99.90
42833;DHT22;64089;51.478;5.692;2024-01-15T15:20:26;2.10;99.90
42833;DHT22;64089;51.478;5.692;2024-01-15T15:22:52;2.00;99.90
42833;DHT22;64089;51.478;5.692;2024-01-15T15:25:21;2.00;99.90
42833;DHT22;64089;51.478;5.692;2024-01-15T15:27:47;2.00;99.90
42833;DHT22;64089;51.478;5.692;2024-01-15T15:30:13;2.00;99.90
42833;DHT22;64089;51.478;5.692;2024-01-15T15:32:39;2.00;99.90
42833;DHT22;64089;51.478;5.692;2024-01-15T15:35:05;1.90;99.90
42833;DHT22;64089;51.478;5.692;2024-01-15T15:37:31;1.90;99.90
42833;DHT22;64089;51.478;5.692;2024-01-15T15:39:57;1.90;99.90
42833;DHT22;64089;51.478;5.692;2024-01-15T15:42:24;1.80;99.90
42833;DHT22;64089;51.478;5.692;2024-01-15T15:44:50;1.80;99.90
42833;DHT22;64089;51.478;5.692;2024-01-15T15:47:16;1.70;99.90
42833;DHT22;64089;51.478;5.692;2024-01-15T15:49:42;1.70;99.90
42833;DHT22;64089;51.478;5.692;2024-01-15T15:52:08;1.70;99.90